createdAt,value
2024-01-20T00:01:11.848Z,8.00
2024-01-20T00:03:48.871Z,6.90
2024-01-20T00:06:17.510Z,7.80
2024-01-20T00:08:46.559Z,6.80
2024-01-20T00:11:15.181Z,8.40
2024-01-20T00:13:43.597Z,7.60
2024-01-20T00:16:12.486Z,7.10
2024-01-20T00:18:40.667Z,7.70
2024-01-20T00:21:08.888Z,6.50
2024-01-20T00:26:06.998Z,8.30
2024-01-20T00:31:03.886Z,6.40
2024-01-20T00:33:32.436Z,6.20
2024-01-20T00:36:00.751Z,5.70
2024-01-20T00:38:29.261Z,6.20
2024-01-20T00:43:25.959Z,4.90
2024-01-20T00:45:53.943Z,7.50
2024-01-20T00:48:22.110Z,5.10
2024-01-20T00:53:18.408Z,5.40
2024-01-20T00:58:15.346Z,6.50
2024-01-20T01:00:43.646Z,5.90
2024-01-20T01:05:40.257Z,6.20
2024-01-20T01:08:08.305Z,6.40
2024-01-20T01:10:36.656Z,4.90
2024-01-20T01:13:05.277Z,7.10
2024-01-20T01:15:33.409Z,6.20
2024-01-20T01:18:01.804Z,6.20
2024-01-20T01:20:30.037Z,4.70
2024-01-20T01:22:58.041Z,5.10
2024-01-20T01:25:26.211Z,6.60
2024-01-20T01:27:54.354Z,5.70
2024-01-20T01:30:22.420Z,5.30
2024-01-20T01:32:50.498Z,6.50
2024-01-20T01:35:18.949Z,7.40
2024-01-20T01:40:15.396Z,4.70
2024-01-20T01:42:43.669Z,6.30
2024-01-20T01:45:11.707Z,6.20
2024-01-20T01:47:39.956Z,5.40
2024-01-20T01:50:08.768Z,7.10
2024-01-20T01:52:36.980Z,4.90
2024-01-20T01:55:05.593Z,6.90
2024-01-20T01:57:34.102Z,5.10
2024-01-20T02:02:33.728Z,6.70
2024-01-20T02:05:02.034Z,6.20
2024-01-20T02:07:30.755Z,6.50
2024-01-20T02:09:58.831Z,5.30
2024-01-20T02:14:55.790Z,7.10
2024-01-20T02:19:51.842Z,5.90
2024-01-20T02:24:50.141Z,5.30
2024-01-20T02:27:18.890Z,6.90
2024-01-20T02:29:46.985Z,5.40
2024-01-20T02:32:15.192Z,6.70
2024-01-20T02:34:43.302Z,6.10
2024-01-20T02:37:11.422Z,4.30
2024-01-20T02:39:39.560Z,5.20
2024-01-20T02:42:09.968Z,4.00
2024-01-20T02:44:39.168Z,5.60
2024-01-20T02:47:07.450Z,4.70
2024-01-20T02:49:35.712Z,4.00
2024-01-20T02:52:05.062Z,9.80
2024-01-20T02:54:33.474Z,8.70
2024-01-20T02:57:01.993Z,5.00
2024-01-20T02:59:30.494Z,4.30
2024-01-20T03:01:59.676Z,6.10
2024-01-20T03:04:28.079Z,4.70
2024-01-20T03:06:56.390Z,4.70
2024-01-20T03:09:24.837Z,4.40
2024-01-20T03:14:21.374Z,5.60
2024-01-20T03:16:49.751Z,7.10
2024-01-20T03:19:17.971Z,5.80
2024-01-20T03:21:46.104Z,4.30
2024-01-20T03:24:18.720Z,5.10
2024-01-20T03:26:48.219Z,6.40
2024-01-20T03:29:16.365Z,5.90
2024-01-20T03:31:44.560Z,5.10
2024-01-20T03:34:12.708Z,5.20
2024-01-20T03:36:41.162Z,5.90
2024-01-20T03:39:09.392Z,5.80
2024-01-20T03:41:38.053Z,5.10
2024-01-20T03:44:06.246Z,4.90
2024-01-20T03:46:34.350Z,4.30
2024-01-20T03:49:02.639Z,5.90
2024-01-20T03:51:31.061Z,7.50
2024-01-20T03:53:59.398Z,4.80
2024-01-20T03:56:27.577Z,6.80
2024-01-20T03:58:55.885Z,3.70
2024-01-20T04:01:24.002Z,7.30
2024-01-20T04:03:52.372Z,6.70
2024-01-20T04:06:20.645Z,6.00
2024-01-20T04:08:49.210Z,4.80
2024-01-20T04:13:47.076Z,5.10
2024-01-20T04:16:15.460Z,5.10
2024-01-20T04:18:43.551Z,5.60
2024-01-20T04:23:40.085Z,5.10
2024-01-20T04:26:08.269Z,6.80
2024-01-20T04:28:36.308Z,5.90
2024-01-20T04:31:05.021Z,5.70
2024-01-20T04:33:36.128Z,4.70
2024-01-20T04:36:04.907Z,5.00
2024-01-20T04:38:33.639Z,5.60
2024-01-20T04:41:01.783Z,7.00
2024-01-20T04:43:30.200Z,5.30
2024-01-20T04:45:58.365Z,7.10
2024-01-20T04:48:27.256Z,5.60
2024-01-20T04:50:55.412Z,5.60
2024-01-20T04:53:23.733Z,6.80
2024-01-20T04:55:51.851Z,4.90
2024-01-20T04:58:20.170Z,7.10
2024-01-20T05:00:48.312Z,8.50
2024-01-20T05:03:16.553Z,4.30
2024-01-20T05:05:44.816Z,6.90
2024-01-20T05:08:13.049Z,5.10
2024-01-20T05:10:41.326Z,4.40
2024-01-20T05:13:09.465Z,6.80
2024-01-20T05:15:37.668Z,7.40
2024-01-20T05:18:05.859Z,5.50
2024-01-20T05:20:34.168Z,5.60
2024-01-20T05:23:02.433Z,6.90
2024-01-20T05:25:30.775Z,5.60
2024-01-20T05:27:58.810Z,5.50
2024-01-20T05:30:27.080Z,5.70
2024-01-20T05:32:55.369Z,5.60
2024-01-20T05:35:23.508Z,5.10
2024-01-20T05:37:51.561Z,5.70
2024-01-20T05:40:19.723Z,6.00
2024-01-20T05:42:47.886Z,5.90
2024-01-20T05:45:16.366Z,5.00
2024-01-20T05:47:44.907Z,5.50
2024-01-20T05:50:13.077Z,5.40
2024-01-20T05:52:41.552Z,8.80
2024-01-20T05:55:09.768Z,5.30
2024-01-20T05:57:38.091Z,5.20
2024-01-20T06:02:34.904Z,5.80
2024-01-20T06:05:03.391Z,4.40
2024-01-20T06:07:31.413Z,4.80
2024-01-20T06:09:59.397Z,6.50
2024-01-20T06:12:27.784Z,6.50
2024-01-20T06:17:25.248Z,5.20
2024-01-20T06:19:54.515Z,6.50
2024-01-20T06:22:22.699Z,4.80
2024-01-20T06:24:50.669Z,5.30
2024-01-20T06:27:18.747Z,10.00
2024-01-20T06:29:46.738Z,5.40
2024-01-20T06:32:14.884Z,5.40
2024-01-20T06:34:43.299Z,6.60
2024-01-20T06:39:42.591Z,5.00
2024-01-20T06:42:11.675Z,5.70
2024-01-20T06:44:40.143Z,7.30
2024-01-20T06:47:12.741Z,7.00
2024-01-20T06:49:41.638Z,7.90
2024-01-20T06:52:10.079Z,8.60
2024-01-20T06:54:40.266Z,6.00
2024-01-20T06:57:08.573Z,5.00
2024-01-20T06:59:37.725Z,4.70
2024-01-20T07:02:06.773Z,7.10
2024-01-20T07:04:35.108Z,6.30
2024-01-20T07:07:03.261Z,6.30
2024-01-20T07:09:31.402Z,6.00
2024-01-20T07:11:59.749Z,4.20
2024-01-20T07:14:27.856Z,5.40
2024-01-20T07:16:56.130Z,5.30
2024-01-20T07:19:24.261Z,7.70
2024-01-20T07:21:52.413Z,4.50
2024-01-20T07:24:20.577Z,6.30
2024-01-20T07:26:48.743Z,5.90
2024-01-20T07:29:17.732Z,4.90
2024-01-20T07:31:45.829Z,6.40
2024-01-20T07:34:14.099Z,5.10
2024-01-20T07:36:42.298Z,5.80
2024-01-20T07:39:10.550Z,5.80
2024-01-20T07:41:38.683Z,10.00
2024-01-20T07:44:06.707Z,5.80
2024-01-20T07:46:34.891Z,6.40
2024-01-20T07:49:03.068Z,6.90
2024-01-20T07:51:31.174Z,5.20
2024-01-20T07:53:59.308Z,6.30
2024-01-20T07:56:28.160Z,5.70
2024-01-20T07:58:56.370Z,6.10
2024-01-20T08:01:24.642Z,7.40
2024-01-20T08:03:54.454Z,6.50
2024-01-20T08:06:23.019Z,5.40
2024-01-20T08:08:51.204Z,5.50
2024-01-20T08:11:20.396Z,6.40
2024-01-20T08:13:50.606Z,7.40
2024-01-20T08:16:18.808Z,4.90
2024-01-20T08:18:47.338Z,5.60
2024-01-20T08:21:15.505Z,7.40
2024-01-20T08:23:43.464Z,6.30
2024-01-20T08:26:11.524Z,6.60
2024-01-20T08:28:39.518Z,5.30
2024-01-20T08:31:08.041Z,5.30
2024-01-20T08:33:36.435Z,5.80
2024-01-20T08:36:05.257Z,5.40
2024-01-20T08:38:33.356Z,6.00
2024-01-20T08:41:09.616Z,5.10
2024-01-20T08:43:41.999Z,5.30
2024-01-20T08:46:11.604Z,6.20
2024-01-20T08:48:41.684Z,5.10
2024-01-20T08:51:10.689Z,5.80
2024-01-20T08:53:40.705Z,4.00
2024-01-20T08:56:10.439Z,6.00
2024-01-20T08:58:38.461Z,7.00
2024-01-20T09:01:07.868Z,5.90
2024-01-20T09:03:36.377Z,7.30
2024-01-20T09:06:05.448Z,6.10
2024-01-20T09:08:33.711Z,6.20
2024-01-20T09:11:01.867Z,5.10
2024-01-20T09:13:30.217Z,6.90
2024-01-20T09:18:27.087Z,7.30
2024-01-20T09:20:55.439Z,6.50
2024-01-20T09:23:23.496Z,5.00
2024-01-20T09:25:51.673Z,4.80
2024-01-20T09:28:19.740Z,5.80
2024-01-20T09:30:48.168Z,8.50
2024-01-20T09:35:46.178Z,5.90
2024-01-20T09:38:14.405Z,4.40
2024-01-20T09:40:42.469Z,4.60
2024-01-20T09:43:10.790Z,5.10
2024-01-20T09:45:41.668Z,5.30
2024-01-20T09:48:10.477Z,5.10
2024-01-20T09:50:38.727Z,5.70
2024-01-20T09:53:17.192Z,4.40
2024-01-20T09:55:46.642Z,5.00
2024-01-20T09:58:15.705Z,5.30
2024-01-20T10:00:44.262Z,4.50
2024-01-20T10:03:13.772Z,6.30
2024-01-20T10:05:42.545Z,4.20
2024-01-20T10:08:11.013Z,5.50
2024-01-20T10:13:07.192Z,4.40
2024-01-20T10:15:35.929Z,4.90
2024-01-20T10:18:09.920Z,3.40
2024-01-20T10:20:38.421Z,5.10
2024-01-20T10:23:07.658Z,5.50
2024-01-20T10:25:36.036Z,4.80
2024-01-20T10:28:04.808Z,4.90
2024-01-20T10:30:32.920Z,5.50
2024-01-20T10:33:09.531Z,5.70
2024-01-20T10:35:40.152Z,5.40
2024-01-20T10:38:17.105Z,6.20
2024-01-20T10:40:46.605Z,6.90
2024-01-20T10:43:16.825Z,5.80
2024-01-20T10:46:15.205Z,4.90
2024-01-20T10:48:43.838Z,5.40
2024-01-20T10:51:12.204Z,6.40
2024-01-20T10:53:40.426Z,5.60
2024-01-20T10:56:09.220Z,4.30
2024-01-20T10:58:42.392Z,7.40
2024-01-20T11:01:11.036Z,5.00
2024-01-20T11:03:39.823Z,5.40
2024-01-20T11:06:08.434Z,6.90
2024-01-20T11:08:36.771Z,5.30
2024-01-20T11:11:09.529Z,4.80
2024-01-20T11:13:38.338Z,8.60
2024-01-20T11:16:06.857Z,5.40
2024-01-20T11:18:40.201Z,5.50
2024-01-20T11:21:08.582Z,3.90
2024-01-20T11:23:36.661Z,6.80
2024-01-20T11:26:11.338Z,5.50
2024-01-20T11:28:44.110Z,4.80
2024-01-20T11:31:21.774Z,7.20
2024-01-20T11:33:50.218Z,6.50
2024-01-20T11:38:46.819Z,4.30
2024-01-20T11:43:47.084Z,5.00
2024-01-20T11:46:15.545Z,3.90
2024-01-20T11:48:44.321Z,4.50
2024-01-20T11:51:12.506Z,4.10
2024-01-20T11:53:40.588Z,5.60
2024-01-20T11:58:37.005Z,4.50
2024-01-20T12:03:33.982Z,5.20
2024-01-20T12:08:43.459Z,3.80
2024-01-20T12:11:21.217Z,4.40
2024-01-20T12:13:49.350Z,5.60
2024-01-20T12:16:18.215Z,5.00
2024-01-20T12:18:46.610Z,4.70
2024-01-20T12:21:14.980Z,5.70
2024-01-20T12:23:43.528Z,5.10
2024-01-20T12:28:43.780Z,4.30
2024-01-20T12:31:13.971Z,4.80
2024-01-20T12:33:44.787Z,7.00
2024-01-20T12:36:13.224Z,5.50
2024-01-20T12:38:41.382Z,6.50
2024-01-20T12:41:09.547Z,5.30
2024-01-20T12:43:37.842Z,7.10
2024-01-20T12:46:06.306Z,4.60
2024-01-20T12:48:34.586Z,4.00
2024-01-20T12:51:02.730Z,5.60
2024-01-20T12:53:30.809Z,5.50
2024-01-20T12:58:26.923Z,6.50
2024-01-20T13:00:55.094Z,4.90
2024-01-20T13:03:23.388Z,5.40
2024-01-20T13:05:53.402Z,6.70
2024-01-20T13:08:21.780Z,5.50
2024-01-20T13:10:51.448Z,4.20
2024-01-20T13:13:20.117Z,5.50
2024-01-20T13:15:48.413Z,6.50
2024-01-20T13:18:17.433Z,5.60
2024-01-20T13:20:45.767Z,6.90
2024-01-20T13:23:13.882Z,7.00
2024-01-20T13:28:14.487Z,4.90
2024-01-20T13:30:43.069Z,5.50
2024-01-20T13:33:11.438Z,5.50
2024-01-20T13:35:40.339Z,6.80
2024-01-20T13:38:08.314Z,6.50
2024-01-20T13:40:36.596Z,6.30
2024-01-20T13:43:04.760Z,5.00
2024-01-20T13:48:01.326Z,5.30
2024-01-20T13:50:29.694Z,6.40
2024-01-20T13:55:26.330Z,5.50
2024-01-20T14:00:23.358Z,5.10
2024-01-20T14:02:51.646Z,5.50
2024-01-20T14:07:48.660Z,4.60
2024-01-20T14:10:16.911Z,4.60
2024-01-20T14:12:45.006Z,5.80
2024-01-20T14:17:41.531Z,6.80
2024-01-20T14:20:10.388Z,4.70
2024-01-20T14:22:39.452Z,4.10
2024-01-20T14:25:08.099Z,5.30
2024-01-20T14:27:36.181Z,4.80
2024-01-20T14:30:05.593Z,5.20
2024-01-20T14:32:34.009Z,3.90
2024-01-20T14:35:02.429Z,6.40
2024-01-20T14:37:30.630Z,4.40
2024-01-20T14:39:58.923Z,5.60
2024-01-20T14:44:55.293Z,4.60
2024-01-20T14:49:55.774Z,4.70
2024-01-20T14:52:24.090Z,5.40
2024-01-20T14:54:53.432Z,3.80
2024-01-20T14:57:22.446Z,4.10
2024-01-20T14:59:53.230Z,4.10
2024-01-20T15:02:22.199Z,3.90
2024-01-20T15:04:50.300Z,6.90
2024-01-20T15:09:46.541Z,4.10
2024-01-20T15:12:14.710Z,4.70
2024-01-20T15:14:45.046Z,3.80
2024-01-20T15:17:13.738Z,5.20
2024-01-20T15:19:42.457Z,5.40
2024-01-20T15:22:11.637Z,3.70
2024-01-20T15:24:40.657Z,4.50
2024-01-20T15:27:08.925Z,5.20
2024-01-20T15:29:37.142Z,4.20
2024-01-20T15:32:06.233Z,6.90
2024-01-20T15:34:34.654Z,4.80
2024-01-20T15:37:03.010Z,5.30
2024-01-20T15:39:31.355Z,9.50
2024-01-20T15:42:00.004Z,3.60
2024-01-20T15:44:28.012Z,3.50
2024-01-20T15:46:56.320Z,4.40
2024-01-20T15:49:24.671Z,4.50
2024-01-20T15:51:53.008Z,3.50
2024-01-20T15:54:21.219Z,3.70
2024-01-20T15:56:49.304Z,5.40
2024-01-20T15:59:21.096Z,5.50
2024-01-20T16:01:49.243Z,5.30
2024-01-20T16:04:17.700Z,5.50
2024-01-20T16:06:46.162Z,5.10
2024-01-20T16:09:16.344Z,4.70
2024-01-20T16:11:45.872Z,4.10
2024-01-20T16:14:14.206Z,3.80
2024-01-20T16:16:42.850Z,5.20
2024-01-20T16:21:39.943Z,3.90
2024-01-20T16:24:08.253Z,5.80
2024-01-20T16:26:36.621Z,15.80
2024-01-20T16:29:04.657Z,17.10
2024-01-20T16:31:32.844Z,16.70
2024-01-20T16:34:00.899Z,9.30
2024-01-20T16:36:29.240Z,4.80
2024-01-20T16:38:57.346Z,5.70
2024-01-20T16:41:25.426Z,7.80
2024-01-20T16:43:53.463Z,5.40
2024-01-20T16:46:21.579Z,4.70
2024-01-20T16:48:49.748Z,5.80
2024-01-20T16:51:24.761Z,5.20
2024-01-20T16:53:55.829Z,5.40
2024-01-20T16:56:23.967Z,5.50
2024-01-20T16:58:52.031Z,6.10
2024-01-20T17:01:20.119Z,5.50
2024-01-20T17:03:48.520Z,6.50
2024-01-20T17:08:49.419Z,5.90
2024-01-20T17:11:17.620Z,4.10
2024-01-20T17:13:46.127Z,6.90
2024-01-20T17:16:15.140Z,5.30
2024-01-20T17:18:43.537Z,5.70
2024-01-20T17:23:47.630Z,7.30
2024-01-20T17:26:15.738Z,4.50
2024-01-20T17:28:43.929Z,5.30
2024-01-20T17:31:12.154Z,6.10
2024-01-20T17:33:40.460Z,7.90
2024-01-20T17:36:08.792Z,7.60
2024-01-20T17:38:37.550Z,8.00
2024-01-20T17:41:05.623Z,8.30
2024-01-20T17:43:34.110Z,7.60
2024-01-20T17:46:02.206Z,9.30
2024-01-20T17:48:30.420Z,8.90
2024-01-20T17:50:58.546Z,9.50
2024-01-20T17:53:27.109Z,7.00
2024-01-20T17:55:55.312Z,11.40
2024-01-20T17:58:23.424Z,13.80
2024-01-20T18:00:51.617Z,8.90
2024-01-20T18:03:19.884Z,11.50
2024-01-20T18:05:48.653Z,11.80
2024-01-20T18:08:16.831Z,10.70
2024-01-20T18:10:44.977Z,12.70
2024-01-20T18:13:12.992Z,11.00
2024-01-20T18:15:41.281Z,11.40
2024-01-20T18:20:37.612Z,11.80
2024-01-20T18:23:06.525Z,11.20
2024-01-20T18:25:35.418Z,10.80
2024-01-20T18:28:05.237Z,7.80
2024-01-20T18:30:34.732Z,9.00
2024-01-20T18:33:03.532Z,8.00
2024-01-20T18:35:33.620Z,8.50
2024-01-20T18:38:01.711Z,5.30
2024-01-20T18:40:29.822Z,5.80
2024-01-20T18:42:58.975Z,10.00
2024-01-20T18:45:27.720Z,7.50
2024-01-20T18:47:56.070Z,6.90
2024-01-20T18:50:24.532Z,7.80
2024-01-20T18:52:52.767Z,4.70
2024-01-20T18:55:21.429Z,6.30
2024-01-20T18:57:49.523Z,6.00
2024-01-20T19:00:17.761Z,5.70
2024-01-20T19:02:45.902Z,8.00
2024-01-20T19:05:14.129Z,8.20
2024-01-20T19:10:11.074Z,7.00
2024-01-20T19:12:41.312Z,12.10
2024-01-20T19:15:10.313Z,9.20
2024-01-20T19:17:38.756Z,12.20
2024-01-20T19:22:38.825Z,6.90
2024-01-20T19:25:10.272Z,6.60
2024-01-20T19:27:38.536Z,9.00
2024-01-20T19:30:07.847Z,10.30
2024-01-20T19:32:36.602Z,9.50
2024-01-20T19:35:05.470Z,8.20
2024-01-20T19:37:33.756Z,9.30
2024-01-20T19:40:01.981Z,9.30
2024-01-20T19:42:30.180Z,8.80
2024-01-20T19:44:58.792Z,9.40
2024-01-20T19:47:26.990Z,14.40
2024-01-20T19:49:55.123Z,9.10
2024-01-20T19:52:24.040Z,8.00
2024-01-20T19:54:52.161Z,8.00
2024-01-20T19:57:20.366Z,8.30
2024-01-20T19:59:48.543Z,8.60
2024-01-20T20:02:16.787Z,7.70
2024-01-20T20:04:46.206Z,10.60
2024-01-20T20:07:15.600Z,13.90
2024-01-20T20:09:45.712Z,13.60
2024-01-20T20:12:14.032Z,11.30
2024-01-20T20:14:42.329Z,8.80
2024-01-20T20:17:10.342Z,9.10
2024-01-20T20:19:38.558Z,9.70
2024-01-20T20:22:06.826Z,7.20
2024-01-20T20:24:34.970Z,9.10
2024-01-20T20:27:03.495Z,9.00
2024-01-20T20:29:31.550Z,9.40
2024-01-20T20:31:59.885Z,7.10
2024-01-20T20:34:28.065Z,7.10
2024-01-20T20:36:58.010Z,10.80
2024-01-20T20:39:26.377Z,9.20
2024-01-20T20:41:55.460Z,11.10
2024-01-20T20:44:23.694Z,7.50
2024-01-20T20:46:51.914Z,6.40
2024-01-20T20:49:20.046Z,8.30
2024-01-20T20:51:48.568Z,6.10
2024-01-20T20:54:17.007Z,7.20
2024-01-20T20:56:45.364Z,7.60
2024-01-20T20:59:13.450Z,6.10
2024-01-20T21:01:41.863Z,5.90
2024-01-20T21:04:11.573Z,8.00
2024-01-20T21:06:40.296Z,6.20
2024-01-20T21:09:12.249Z,7.50
2024-01-20T21:11:40.479Z,7.90
2024-01-20T21:14:09.834Z,6.80
2024-01-20T21:16:38.033Z,7.80
2024-01-20T21:19:06.341Z,7.10
2024-01-20T21:24:03.974Z,5.80
2024-01-20T21:26:32.480Z,9.20
2024-01-20T21:31:28.517Z,8.40
2024-01-20T21:33:56.889Z,9.10
2024-01-20T21:36:25.663Z,11.50
2024-01-20T21:38:53.900Z,8.50
2024-01-20T21:41:22.021Z,8.80
2024-01-20T21:43:50.049Z,6.90
2024-01-20T21:46:18.133Z,7.70
2024-01-20T21:48:46.456Z,10.80
2024-01-20T21:51:15.158Z,9.20
2024-01-20T21:53:43.261Z,7.50
2024-01-20T21:56:11.255Z,8.40
2024-01-20T21:58:39.313Z,7.30
2024-01-20T22:01:07.562Z,6.90
2024-01-20T22:03:35.775Z,7.60
2024-01-20T22:06:04.909Z,7.70
2024-01-20T22:08:33.467Z,7.20
2024-01-20T22:11:01.428Z,6.30
2024-01-20T22:13:30.834Z,7.20
2024-01-20T22:15:59.179Z,5.90
2024-01-20T22:18:28.053Z,5.50
2024-01-20T22:20:57.054Z,6.60
2024-01-20T22:23:25.490Z,5.60
2024-01-20T22:25:53.781Z,4.50
2024-01-20T22:28:21.939Z,5.60
2024-01-20T22:30:50.121Z,6.00
2024-01-20T22:33:18.597Z,6.60
2024-01-20T22:38:15.249Z,5.90
2024-01-20T22:40:43.755Z,5.20
2024-01-20T22:43:11.825Z,5.60
2024-01-20T22:45:40.558Z,3.60
2024-01-20T22:48:08.991Z,6.30
2024-01-20T22:50:37.240Z,3.80
2024-01-20T22:53:05.531Z,6.90
2024-01-20T22:55:34.100Z,4.80
2024-01-20T22:58:02.266Z,6.60
2024-01-20T23:00:30.412Z,6.90
2024-01-20T23:02:58.547Z,6.10
2024-01-20T23:05:27.251Z,3.90
2024-01-20T23:07:55.533Z,5.60
2024-01-20T23:10:23.642Z,6.70
2024-01-20T23:12:51.943Z,5.10
2024-01-20T23:15:20.071Z,5.90
2024-01-20T23:17:48.191Z,6.80
2024-01-20T23:20:16.517Z,6.20
2024-01-20T23:22:45.468Z,9.40
2024-01-20T23:25:13.615Z,8.80
2024-01-20T23:27:41.765Z,8.20
2024-01-20T23:30:10.377Z,6.70
2024-01-20T23:35:08.357Z,5.70
2024-01-20T23:37:36.428Z,5.20
2024-01-20T23:40:05.806Z,7.90
2024-01-20T23:42:34.352Z,6.50
2024-01-20T23:47:31.031Z,6.00
2024-01-20T23:49:59.989Z,6.30
2024-01-20T23:52:28.119Z,4.80
2024-01-20T23:54:56.275Z,6.80
2024-01-20T23:57:24.843Z,5.10
2024-01-20T23:59:52.923Z,5.00
